sensor_id;sensor_type;location;lat;lon;timestamp;pressure;altitude;pressure_sealevel;temperature;humidity
56176;BME280;63065;51.082;17.016;2023-04-26T00:02:15;99928.37;;;9.23;37.68
56176;BME280;63065;51.082;17.016;2023-04-26T00:04:40;99932.31;;;9.34;38.01
56176;BME280;63065;51.082;17.016;2023-04-26T00:07:06;99931.11;;;9.33;37.63
56176;BME280;63065;51.082;17.016;2023-04-26T00:09:31;99930.08;;;9.47;37.23
56176;BME280;63065;51.082;17.016;2023-04-26T00:11:57;99928.12;;;9.47;37.91
56176;BME280;63065;51.082;17.016;2023-04-26T00:14:22;99928.09;;;9.47;37.30
56176;BME280;63065;51.082;17.016;2023-04-26T00:16:48;99927.95;;;9.60;37.52
56176;BME280;63065;51.082;17.016;2023-04-26T00:19:13;99928.87;;;9.43;37.56
56176;BME280;63065;51.082;17.016;2023-04-26T00:21:39;99936.12;;;9.19;37.22
56176;BME280;63065;51.082;17.016;2023-04-26T00:24:05;99936.87;;;9.23;38.38
56176;BME280;63065;51.082;17.016;2023-04-26T00:26:29;99939.50;;;9.31;37.96
56176;BME280;63065;51.082;17.016;2023-04-26T00:28:55;99933.79;;;9.31;37.38
56176;BME280;63065;51.082;17.016;2023-04-26T00:31:20;99938.66;;;9.27;37.40
56176;BME280;63065;51.082;17.016;2023-04-26T00:33:45;99940.30;;;9.24;37.30
56176;BME280;63065;51.082;17.016;2023-04-26T00:36:12;99939.78;;;9.05;37.36
56176;BME280;63065;51.082;17.016;2023-04-26T00:38:35;99942.33;;;9.36;37.20
56176;BME280;63065;51.082;17.016;2023-04-26T00:41:01;99945.57;;;9.37;37.20
56176;BME280;63065;51.082;17.016;2023-04-26T00:43:27;99945.13;;;9.24;37.55
56176;BME280;63065;51.082;17.016;2023-04-26T00:45:52;99946.49;;;9.21;37.56
56176;BME280;63065;51.082;17.016;2023-04-26T00:48:19;99948.68;;;9.17;37.47
56176;BME280;63065;51.082;17.016;2023-04-26T00:50:44;99952.09;;;9.20;37.35
56176;BME280;63065;51.082;17.016;2023-04-26T00:53:10;99953.30;;;9.13;37.50
56176;BME280;63065;51.082;17.016;2023-04-26T00:55:35;99955.53;;;9.05;37.64
56176;BME280;63065;51.082;17.016;2023-04-26T00:58:00;99959.50;;;8.89;37.78
56176;BME280;63065;51.082;17.016;2023-04-26T01:00:26;99958.88;;;8.94;37.83
56176;BME280;63065;51.082;17.016;2023-04-26T01:02:51;99960.13;;;8.88;37.71
56176;BME280;63065;51.082;17.016;2023-04-26T01:05:17;99960.42;;;8.86;37.87
56176;BME280;63065;51.082;17.016;2023-04-26T01:07:42;99961.04;;;8.91;37.75
56176;BME280;63065;51.082;17.016;2023-04-26T01:10:08;99961.20;;;8.91;37.59
56176;BME280;63065;51.082;17.016;2023-04-26T01:12:32;99963.16;;;8.92;37.93
56176;BME280;63065;51.082;17.016;2023-04-26T01:14:59;99960.19;;;8.45;38.13
56176;BME280;63065;51.082;17.016;2023-04-26T01:17:23;99960.27;;;8.56;38.74
56176;BME280;63065;51.082;17.016;2023-04-26T01:19:49;99964.26;;;8.65;39.05
56176;BME280;63065;51.082;17.016;2023-04-26T01:22:14;99964.93;;;8.43;38.74
56176;BME280;63065;51.082;17.016;2023-04-26T01:24:40;99969.12;;;7.97;40.29
56176;BME280;63065;51.082;17.016;2023-04-26T01:27:04;99971.26;;;7.80;39.73
56176;BME280;63065;51.082;17.016;2023-04-26T01:29:31;99970.83;;;8.08;39.62
56176;BME280;63065;51.082;17.016;2023-04-26T01:31:55;99972.92;;;8.23;39.25
56176;BME280;63065;51.082;17.016;2023-04-26T01:34:20;99974.01;;;7.63;39.72
56176;BME280;63065;51.082;17.016;2023-04-26T01:36:45;99976.04;;;8.22;39.37
56176;BME280;63065;51.082;17.016;2023-04-26T01:39:10;99977.34;;;8.23;39.22
56176;BME280;63065;51.082;17.016;2023-04-26T01:41:36;99981.25;;;8.22;39.68
56176;BME280;63065;51.082;17.016;2023-04-26T01:44:02;99978.69;;;8.39;38.87
56176;BME280;63065;51.082;17.016;2023-04-26T01:46:27;99983.16;;;7.43;40.81
56176;BME280;63065;51.082;17.016;2023-04-26T01:48:52;99984.17;;;7.65;40.16
56176;BME280;63065;51.082;17.016;2023-04-26T01:51:17;99983.65;;;8.02;39.88
56176;BME280;63065;51.082;17.016;2023-04-26T01:53:43;99988.07;;;8.43;39.31
56176;BME280;63065;51.082;17.016;2023-04-26T01:56:08;99987.07;;;5.95;41.78
56176;BME280;63065;51.082;17.016;2023-04-26T01:58:33;99988.34;;;7.19;40.75
56176;BME280;63065;51.082;17.016;2023-04-26T02:01:05;99985.93;;;7.63;40.52
56176;BME280;63065;51.082;17.016;2023-04-26T02:03:24;99983.84;;;7.69;40.75
56176;BME280;63065;51.082;17.016;2023-04-26T02:05:49;99989.39;;;7.06;40.97
56176;BME280;63065;51.082;17.016;2023-04-26T02:08:14;99986.76;;;7.84;40.89
56176;BME280;63065;51.082;17.016;2023-04-26T02:10:40;99987.08;;;7.41;40.48
56176;BME280;63065;51.082;17.016;2023-04-26T02:13:07;99988.49;;;7.38;41.22
56176;BME280;63065;51.082;17.016;2023-04-26T02:15:31;99984.11;;;7.39;40.86
56176;BME280;63065;51.082;17.016;2023-04-26T02:17:56;99987.31;;;7.19;41.05
56176;BME280;63065;51.082;17.016;2023-04-26T02:20:22;99982.71;;;7.73;40.97
56176;BME280;63065;51.082;17.016;2023-04-26T02:22:48;99987.33;;;6.99;41.85
56176;BME280;63065;51.082;17.016;2023-04-26T02:25:13;99985.48;;;7.21;41.00
56176;BME280;63065;51.082;17.016;2023-04-26T02:27:38;99981.24;;;7.66;40.44
56176;BME280;63065;51.082;17.016;2023-04-26T02:30:05;99983.99;;;7.86;39.73
56176;BME280;63065;51.082;17.016;2023-04-26T02:32:29;99982.94;;;8.45;39.47
56176;BME280;63065;51.082;17.016;2023-04-26T02:34:54;99987.95;;;8.08;39.42
56176;BME280;63065;51.082;17.016;2023-04-26T02:37:20;99988.14;;;8.28;39.27
56176;BME280;63065;51.082;17.016;2023-04-26T02:39:49;99989.23;;;8.50;39.02
56176;BME280;63065;51.082;17.016;2023-04-26T02:42:11;99989.30;;;8.33;39.26
56176;BME280;63065;51.082;17.016;2023-04-26T02:44:36;99992.12;;;8.36;39.15
56176;BME280;63065;51.082;17.016;2023-04-26T02:47:02;99992.09;;;8.45;39.26
56176;BME280;63065;51.082;17.016;2023-04-26T02:49:27;99989.76;;;8.51;39.06
56176;BME280;63065;51.082;17.016;2023-04-26T02:51:52;99992.75;;;8.31;38.78
56176;BME280;63065;51.082;17.016;2023-04-26T02:54:18;99987.11;;;8.33;39.53
56176;BME280;63065;51.082;17.016;2023-04-26T02:56:44;99991.40;;;7.99;39.72
56176;BME280;63065;51.082;17.016;2023-04-26T02:59:09;99990.83;;;8.35;39.45
56176;BME280;63065;51.082;17.016;2023-04-26T03:01:34;99994.16;;;8.28;39.75
56176;BME280;63065;51.082;17.016;2023-04-26T03:04:01;99996.33;;;7.97;39.90
56176;BME280;63065;51.082;17.016;2023-04-26T03:06:25;100000.17;;;7.06;41.27
56176;BME280;63065;51.082;17.016;2023-04-26T03:08:51;100001.34;;;7.15;42.10
56176;BME280;63065;51.082;17.016;2023-04-26T03:11:17;100003.72;;;5.29;44.92
56176;BME280;63065;51.082;17.016;2023-04-26T03:13:42;100003.33;;;6.11;43.58
56176;BME280;63065;51.082;17.016;2023-04-26T03:16:07;100002.39;;;5.90;44.36
56176;BME280;63065;51.082;17.016;2023-04-26T03:18:32;100010.76;;;5.30;45.54
56176;BME280;63065;51.082;17.016;2023-04-26T03:20:57;100010.20;;;4.45;47.67
56176;BME280;63065;51.082;17.016;2023-04-26T03:23:22;100011.98;;;5.37;46.20
56176;BME280;63065;51.082;17.016;2023-04-26T03:25:48;100012.68;;;5.18;45.93
56176;BME280;63065;51.082;17.016;2023-04-26T03:28:13;100012.17;;;6.19;44.35
56176;BME280;63065;51.082;17.016;2023-04-26T03:30:38;100016.99;;;6.73;43.53
56176;BME280;63065;51.082;17.016;2023-04-26T03:33:03;100026.41;;;7.60;41.72
56176;BME280;63065;51.082;17.016;2023-04-26T03:35:28;100021.98;;;7.73;41.03
56176;BME280;63065;51.082;17.016;2023-04-26T03:37:54;100026.97;;;8.16;40.84
56176;BME280;63065;51.082;17.016;2023-04-26T03:40:19;100025.65;;;7.97;40.41
56176;BME280;63065;51.082;17.016;2023-04-26T03:42:45;100027.68;;;7.82;40.99
56176;BME280;63065;51.082;17.016;2023-04-26T03:45:10;100032.07;;;8.12;40.78
56176;BME280;63065;51.082;17.016;2023-04-26T03:47:36;100029.43;;;7.81;40.73
56176;BME280;63065;51.082;17.016;2023-04-26T03:50:01;100033.40;;;7.95;40.67
56176;BME280;63065;51.082;17.016;2023-04-26T03:52:26;100037.85;;;8.19;40.82
56176;BME280;63065;51.082;17.016;2023-04-26T03:54:52;100039.03;;;8.06;40.35
56176;BME280;63065;51.082;17.016;2023-04-26T03:57:18;100041.92;;;8.00;40.81
56176;BME280;63065;51.082;17.016;2023-04-26T03:59:43;100044.00;;;7.21;41.22
56176;BME280;63065;51.082;17.016;2023-04-26T04:02:08;100047.99;;;7.74;40.88
56176;BME280;63065;51.082;17.016;2023-04-26T04:04:33;100046.80;;;7.89;40.96
56176;BME280;63065;51.082;17.016;2023-04-26T04:06:59;100051.33;;;7.78;41.16
56176;BME280;63065;51.082;17.016;2023-04-26T04:09:24;100044.91;;;8.18;40.56
56176;BME280;63065;51.082;17.016;2023-04-26T04:11:49;100052.88;;;8.13;40.21
56176;BME280;63065;51.082;17.016;2023-04-26T04:14:14;100055.70;;;7.46;41.41
56176;BME280;63065;51.082;17.016;2023-04-26T04:16:39;100058.96;;;6.78;42.76
56176;BME280;63065;51.082;17.016;2023-04-26T04:19:05;100063.17;;;7.13;42.69
56176;BME280;63065;51.082;17.016;2023-04-26T04:21:30;100061.48;;;8.03;41.54
56176;BME280;63065;51.082;17.016;2023-04-26T04:23:55;100065.88;;;7.47;42.01
56176;BME280;63065;51.082;17.016;2023-04-26T04:26:20;100071.53;;;7.24;42.93
56176;BME280;63065;51.082;17.016;2023-04-26T04:28:45;100072.02;;;8.01;41.28
56176;BME280;63065;51.082;17.016;2023-04-26T04:31:10;100077.73;;;7.25;42.35
56176;BME280;63065;51.082;17.016;2023-04-26T04:33:36;100083.04;;;7.29;41.77
56176;BME280;63065;51.082;17.016;2023-04-26T04:36:01;100082.38;;;8.02;41.46
56176;BME280;63065;51.082;17.016;2023-04-26T04:38:26;100080.39;;;7.95;42.15
56176;BME280;63065;51.082;17.016;2023-04-26T04:40:52;100078.18;;;8.12;40.96
56176;BME280;63065;51.082;17.016;2023-04-26T04:43:17;100078.98;;;7.63;41.88
56176;BME280;63065;51.082;17.016;2023-04-26T04:45:43;100083.60;;;6.45;42.47
56176;BME280;63065;51.082;17.016;2023-04-26T04:48:08;100081.43;;;6.52;43.99
56176;BME280;63065;51.082;17.016;2023-04-26T04:50:34;100085.21;;;8.02;42.45
56176;BME280;63065;51.082;17.016;2023-04-26T04:52:59;100087.93;;;7.68;42.20
56176;BME280;63065;51.082;17.016;2023-04-26T04:55:25;100092.27;;;6.64;42.93
56176;BME280;63065;51.082;17.016;2023-04-26T04:57:51;100093.37;;;6.86;42.84
56176;BME280;63065;51.082;17.016;2023-04-26T05:00:17;100099.76;;;5.39;45.51
56176;BME280;63065;51.082;17.016;2023-04-26T05:02:42;100100.11;;;5.08;46.30
56176;BME280;63065;51.082;17.016;2023-04-26T05:05:08;100100.30;;;6.46;44.60
56176;BME280;63065;51.082;17.016;2023-04-26T05:07:32;100103.50;;;7.22;43.46
56176;BME280;63065;51.082;17.016;2023-04-26T05:09:57;100109.39;;;5.33;46.14
56176;BME280;63065;51.082;17.016;2023-04-26T05:12:22;100107.43;;;5.08;47.21
56176;BME280;63065;51.082;17.016;2023-04-26T05:14:47;100110.27;;;5.11;47.33
56176;BME280;63065;51.082;17.016;2023-04-26T05:17:13;100106.98;;;6.10;45.72
56176;BME280;63065;51.082;17.016;2023-04-26T05:19:38;100104.78;;;5.42;46.30
56176;BME280;63065;51.082;17.016;2023-04-26T05:22:03;100111.38;;;5.56;45.77
56176;BME280;63065;51.082;17.016;2023-04-26T05:24:29;100114.48;;;5.45;46.69
56176;BME280;63065;51.082;17.016;2023-04-26T05:26:54;100116.45;;;3.62;48.19
56176;BME280;63065;51.082;17.016;2023-04-26T05:29:19;100115.28;;;3.50;49.11
56176;BME280;63065;51.082;17.016;2023-04-26T05:31:45;100113.68;;;4.14;48.96
56176;BME280;63065;51.082;17.016;2023-04-26T05:34:10;100121.13;;;5.32;47.34
56176;BME280;63065;51.082;17.016;2023-04-26T05:36:35;100122.13;;;4.62;47.26
56176;BME280;63065;51.082;17.016;2023-04-26T05:39:00;100119.29;;;3.61;49.11
56176;BME280;63065;51.082;17.016;2023-04-26T05:41:25;100120.94;;;4.52;48.46
56176;BME280;63065;51.082;17.016;2023-04-26T05:43:50;100124.27;;;4.76;46.77
56176;BME280;63065;51.082;17.016;2023-04-26T05:46:16;100126.25;;;3.76;49.40
56176;BME280;63065;51.082;17.016;2023-04-26T05:48:41;100126.17;;;4.39;48.28
56176;BME280;63065;51.082;17.016;2023-04-26T05:51:06;100133.47;;;4.79;47.48
56176;BME280;63065;51.082;17.016;2023-04-26T05:53:31;100132.42;;;4.20;48.25
56176;BME280;63065;51.082;17.016;2023-04-26T05:55:56;100130.21;;;4.41;47.78
56176;BME280;63065;51.082;17.016;2023-04-26T05:58:22;100132.09;;;4.74;47.49
56176;BME280;63065;51.082;17.016;2023-04-26T06:00:47;100140.37;;;4.87;47.86
56176;BME280;63065;51.082;17.016;2023-04-26T06:03:12;100139.16;;;4.95;46.69
56176;BME280;63065;51.082;17.016;2023-04-26T06:05:37;100138.54;;;5.02;46.53
56176;BME280;63065;51.082;17.016;2023-04-26T06:08:02;100135.74;;;4.36;48.23
56176;BME280;63065;51.082;17.016;2023-04-26T06:10:27;100148.80;;;3.89;47.97
56176;BME280;63065;51.082;17.016;2023-04-26T06:12:52;100142.84;;;4.23;48.18
56176;BME280;63065;51.082;17.016;2023-04-26T06:15:17;100141.94;;;4.23;47.17
56176;BME280;63065;51.082;17.016;2023-04-26T06:17:43;100148.99;;;4.35;47.36
56176;BME280;63065;51.082;17.016;2023-04-26T06:20:09;100150.21;;;4.61;46.92
56176;BME280;63065;51.082;17.016;2023-04-26T06:22:33;100155.30;;;5.35;46.25
56176;BME280;63065;51.082;17.016;2023-04-26T06:24:58;100149.22;;;4.68;46.42
56176;BME280;63065;51.082;17.016;2023-04-26T06:27:24;100152.59;;;6.11;44.76
56176;BME280;63065;51.082;17.016;2023-04-26T06:29:49;100156.46;;;5.48;45.08
56176;BME280;63065;51.082;17.016;2023-04-26T06:32:14;100158.09;;;5.99;45.17
56176;BME280;63065;51.082;17.016;2023-04-26T06:34:40;100159.05;;;5.89;44.24
56176;BME280;63065;51.082;17.016;2023-04-26T06:37:05;100151.00;;;7.97;41.26
56176;BME280;63065;51.082;17.016;2023-04-26T06:39:30;100159.38;;;4.52;45.63
56176;BME280;63065;51.082;17.016;2023-04-26T06:41:55;100153.88;;;5.08;46.36
56176;BME280;63065;51.082;17.016;2023-04-26T06:44:21;100155.62;;;5.29;45.65
56176;BME280;63065;51.082;17.016;2023-04-26T06:46:46;100151.02;;;7.21;42.84
56176;BME280;63065;51.082;17.016;2023-04-26T06:49:11;100159.33;;;8.34;41.22
56176;BME280;63065;51.082;17.016;2023-04-26T06:51:37;100149.17;;;8.77;38.53
56176;BME280;63065;51.082;17.016;2023-04-26T06:54:03;100152.40;;;7.56;40.73
56176;BME280;63065;51.082;17.016;2023-04-26T06:56:27;100159.69;;;8.58;39.67
56176;BME280;63065;51.082;17.016;2023-04-26T06:58:58;100154.31;;;8.70;38.63
56176;BME280;63065;51.082;17.016;2023-04-26T07:01:18;100156.39;;;7.14;41.05
56176;BME280;63065;51.082;17.016;2023-04-26T07:03:43;100153.73;;;7.32;40.96
56176;BME280;63065;51.082;17.016;2023-04-26T07:06:08;100155.50;;;6.47;41.78
56176;BME280;63065;51.082;17.016;2023-04-26T07:08:34;100158.08;;;7.27;41.54
56176;BME280;63065;51.082;17.016;2023-04-26T07:10:58;100168.60;;;6.12;41.86
56176;BME280;63065;51.082;17.016;2023-04-26T07:13:24;100169.59;;;5.01;43.16
56176;BME280;63065;51.082;17.016;2023-04-26T07:15:49;100167.16;;;6.91;40.64
56176;BME280;63065;51.082;17.016;2023-04-26T07:18:14;100158.41;;;7.85;40.34
56176;BME280;63065;51.082;17.016;2023-04-26T07:20:39;100158.20;;;8.77;37.99
56176;BME280;63065;51.082;17.016;2023-04-26T07:23:04;100159.11;;;7.15;37.49
56176;BME280;63065;51.082;17.016;2023-04-26T07:25:29;100161.32;;;5.91;40.33
56176;BME280;63065;51.082;17.016;2023-04-26T07:27:55;100162.09;;;5.02;42.24
56176;BME280;63065;51.082;17.016;2023-04-26T07:30:20;100163.66;;;6.84;39.66
56176;BME280;63065;51.082;17.016;2023-04-26T07:32:45;100165.51;;;6.40;40.27
56176;BME280;63065;51.082;17.016;2023-04-26T07:35:11;100164.19;;;7.07;38.49
56176;BME280;63065;51.082;17.016;2023-04-26T07:37:35;100170.88;;;6.23;41.13
56176;BME280;63065;51.082;17.016;2023-04-26T07:40:00;100169.55;;;6.42;40.44
56176;BME280;63065;51.082;17.016;2023-04-26T07:42:25;100166.80;;;6.33;40.48
56176;BME280;63065;51.082;17.016;2023-04-26T07:44:50;100160.87;;;8.37;36.87
56176;BME280;63065;51.082;17.016;2023-04-26T07:47:16;100167.21;;;9.06;35.96
56176;BME280;63065;51.082;17.016;2023-04-26T07:49:42;100161.62;;;8.82;35.78
56176;BME280;63065;51.082;17.016;2023-04-26T07:52:08;100167.22;;;7.83;36.51
56176;BME280;63065;51.082;17.016;2023-04-26T07:54:34;100172.21;;;6.87;36.92
56176;BME280;63065;51.082;17.016;2023-04-26T07:57:00;100170.88;;;8.37;36.40
56176;BME280;63065;51.082;17.016;2023-04-26T07:59:26;100159.31;;;9.47;34.66
56176;BME280;63065;51.082;17.016;2023-04-26T08:01:51;100170.90;;;8.17;33.99
56176;BME280;63065;51.082;17.016;2023-04-26T08:04:30;100170.00;;;8.03;35.83
56176;BME280;63065;51.082;17.016;2023-04-26T08:06:42;100167.77;;;8.85;35.41
56176;BME280;63065;51.082;17.016;2023-04-26T08:09:08;100172.22;;;7.44;36.93
56176;BME280;63065;51.082;17.016;2023-04-26T08:11:34;100183.54;;;7.60;37.34
56176;BME280;63065;51.082;17.016;2023-04-26T08:14:00;100172.23;;;7.43;38.00
56176;BME280;63065;51.082;17.016;2023-04-26T08:16:26;100178.46;;;8.13;37.05
56176;BME280;63065;51.082;17.016;2023-04-26T08:18:51;100175.68;;;7.27;37.92
56176;BME280;63065;51.082;17.016;2023-04-26T08:21:17;100182.10;;;6.95;37.25
56176;BME280;63065;51.082;17.016;2023-04-26T08:23:43;100182.51;;;6.77;36.68
56176;BME280;63065;51.082;17.016;2023-04-26T08:26:08;100181.20;;;8.33;36.60
56176;BME280;63065;51.082;17.016;2023-04-26T08:28:34;100185.48;;;7.19;36.57
56176;BME280;63065;51.082;17.016;2023-04-26T08:31:00;100184.27;;;7.25;37.96
56176;BME280;63065;51.082;17.016;2023-04-26T08:33:26;100193.86;;;8.32;37.55
56176;BME280;63065;51.082;17.016;2023-04-26T08:35:52;100188.81;;;7.53;36.91
56176;BME280;63065;51.082;17.016;2023-04-26T08:38:17;100187.52;;;9.58;35.21
56176;BME280;63065;51.082;17.016;2023-04-26T08:40:45;100189.50;;;9.67;32.92
56176;BME280;63065;51.082;17.016;2023-04-26T08:43:10;100186.26;;;9.84;34.66
56176;BME280;63065;51.082;17.016;2023-04-26T08:45:38;100195.45;;;8.97;35.60
56176;BME280;63065;51.082;17.016;2023-04-26T08:48:05;100192.29;;;9.40;35.61
56176;BME280;63065;51.082;17.016;2023-04-26T08:50:27;100193.63;;;8.48;35.42
56176;BME280;63065;51.082;17.016;2023-04-26T08:52:53;100193.31;;;9.65;34.68
56176;BME280;63065;51.082;17.016;2023-04-26T08:55:19;100196.54;;;9.82;35.16
56176;BME280;63065;51.082;17.016;2023-04-26T08:57:46;100191.35;;;9.70;33.99
56176;BME280;63065;51.082;17.016;2023-04-26T09:00:12;100202.67;;;9.66;34.93
56176;BME280;63065;51.082;17.016;2023-04-26T09:02:36;100199.98;;;8.30;36.09
56176;BME280;63065;51.082;17.016;2023-04-26T09:05:02;100196.85;;;9.10;34.28
56176;BME280;63065;51.082;17.016;2023-04-26T09:07:31;100192.82;;;9.17;33.34
56176;BME280;63065;51.082;17.016;2023-04-26T09:09:54;100196.39;;;9.78;32.67
56176;BME280;63065;51.082;17.016;2023-04-26T09:12:19;100192.95;;;11.46;32.20
56176;BME280;63065;51.082;17.016;2023-04-26T09:14:45;100191.64;;;12.69;30.69
56176;BME280;63065;51.082;17.016;2023-04-26T09:19:37;100197.69;;;11.44;34.86
56176;BME280;63065;51.082;17.016;2023-04-26T09:22:03;100198.92;;;8.62;37.21
56176;BME280;63065;51.082;17.016;2023-04-26T09:24:28;100197.21;;;10.33;36.09
56176;BME280;63065;51.082;17.016;2023-04-26T09:27:00;100193.73;;;8.51;38.76
56176;BME280;63065;51.082;17.016;2023-04-26T09:29:19;100202.99;;;9.81;35.63
56176;BME280;63065;51.082;17.016;2023-04-26T09:31:47;100207.63;;;11.04;35.54
56176;BME280;63065;51.082;17.016;2023-04-26T09:34:12;100202.17;;;9.91;35.63
56176;BME280;63065;51.082;17.016;2023-04-26T09:39:03;100208.51;;;9.73;37.37
56176;BME280;63065;51.082;17.016;2023-04-26T09:43:54;100200.91;;;10.50;36.93
56176;BME280;63065;51.082;17.016;2023-04-26T09:46:22;100200.58;;;10.33;36.73
56176;BME280;63065;51.082;17.016;2023-04-26T09:51:11;100195.82;;;11.46;33.90
56176;BME280;63065;51.082;17.016;2023-04-26T09:53:39;100198.20;;;10.40;33.27
56176;BME280;63065;51.082;17.016;2023-04-26T09:56:08;100191.10;;;12.04;32.25
56176;BME280;63065;51.082;17.016;2023-04-26T09:58:29;100203.81;;;10.57;32.89
56176;BME280;63065;51.082;17.016;2023-04-26T10:00:56;100199.61;;;9.69;34.40
56176;BME280;63065;51.082;17.016;2023-04-26T10:03:22;100199.69;;;10.47;33.80
56176;BME280;63065;51.082;17.016;2023-04-26T10:05:46;100192.80;;;12.91;32.53
56176;BME280;63065;51.082;17.016;2023-04-26T10:08:12;100196.77;;;11.71;32.56
56176;BME280;63065;51.082;17.016;2023-04-26T10:10:37;100186.31;;;12.70;31.33
56176;BME280;63065;51.082;17.016;2023-04-26T10:13:05;100198.62;;;9.91;32.56
56176;BME280;63065;51.082;17.016;2023-04-26T10:15:29;100201.05;;;10.91;33.64
56176;BME280;63065;51.082;17.016;2023-04-26T10:17:55;100197.66;;;9.76;34.34
56176;BME280;63065;51.082;17.016;2023-04-26T10:20:21;100198.45;;;9.38;33.78
56176;BME280;63065;51.082;17.016;2023-04-26T10:22:51;100192.39;;;11.21;33.21
56176;BME280;63065;51.082;17.016;2023-04-26T10:25:12;100185.66;;;10.52;31.13
56176;BME280;63065;51.082;17.016;2023-04-26T10:30:06;100185.44;;;11.95;29.93
56176;BME280;63065;51.082;17.016;2023-04-26T10:32:30;100192.42;;;9.41;32.43
56176;BME280;63065;51.082;17.016;2023-04-26T10:37:21;100200.54;;;8.35;33.04
56176;BME280;63065;51.082;17.016;2023-04-26T10:39:47;100196.61;;;9.00;34.86
56176;BME280;63065;51.082;17.016;2023-04-26T10:42:18;100204.63;;;8.16;36.24
56176;BME280;63065;51.082;17.016;2023-04-26T10:44:40;100204.54;;;8.55;37.03
56176;BME280;63065;51.082;17.016;2023-04-26T10:47:05;100204.34;;;7.97;38.24
56176;BME280;63065;51.082;17.016;2023-04-26T10:54:22;100202.52;;;10.12;33.05
56176;BME280;63065;51.082;17.016;2023-04-26T10:56:51;100194.90;;;11.66;31.55
56176;BME280;63065;51.082;17.016;2023-04-26T10:59:19;100193.02;;;12.41;30.51
56176;BME280;63065;51.082;17.016;2023-04-26T11:01:40;100190.48;;;12.59;29.47
56176;BME280;63065;51.082;17.016;2023-04-26T11:04:06;100186.62;;;13.43;27.16
56176;BME280;63065;51.082;17.016;2023-04-26T11:08:59;100189.15;;;11.28;29.57
56176;BME280;63065;51.082;17.016;2023-04-26T11:11:25;100202.18;;;11.31;31.01
56176;BME280;63065;51.082;17.016;2023-04-26T11:13:49;100213.77;;;10.99;30.33
56176;BME280;63065;51.082;17.016;2023-04-26T11:16:15;100207.52;;;10.57;31.76
56176;BME280;63065;51.082;17.016;2023-04-26T11:18:41;100204.80;;;11.69;29.73
56176;BME280;63065;51.082;17.016;2023-04-26T11:21:06;100205.74;;;12.07;29.80
56176;BME280;63065;51.082;17.016;2023-04-26T11:23:32;100200.83;;;12.12;27.94
56176;BME280;63065;51.082;17.016;2023-04-26T11:25:58;100207.53;;;11.60;30.31
56176;BME280;63065;51.082;17.016;2023-04-26T11:28:23;100206.23;;;11.51;29.98
56176;BME280;63065;51.082;17.016;2023-04-26T11:30:49;100201.81;;;12.92;30.88
56176;BME280;63065;51.082;17.016;2023-04-26T11:33:17;100203.66;;;11.26;29.12
56176;BME280;63065;51.082;17.016;2023-04-26T11:35:40;100205.69;;;11.50;29.44
56176;BME280;63065;51.082;17.016;2023-04-26T11:38:06;100207.78;;;11.33;30.26
56176;BME280;63065;51.082;17.016;2023-04-26T11:40:32;100210.05;;;12.01;30.32
56176;BME280;63065;51.082;17.016;2023-04-26T11:42:59;100205.45;;;13.27;28.06
56176;BME280;63065;51.082;17.016;2023-04-26T11:45:23;100206.25;;;12.69;27.47
56176;BME280;63065;51.082;17.016;2023-04-26T11:47:49;100204.65;;;12.80;27.08
56176;BME280;63065;51.082;17.016;2023-04-26T11:50:15;100206.32;;;11.03;30.10
56176;BME280;63065;51.082;17.016;2023-04-26T11:52:41;100214.65;;;12.46;28.63
56176;BME280;63065;51.082;17.016;2023-04-26T11:55:07;100214.57;;;11.38;28.11
56176;BME280;63065;51.082;17.016;2023-04-26T11:57:33;100201.21;;;12.29;27.55
56176;BME280;63065;51.082;17.016;2023-04-26T12:00:07;100186.91;;;12.94;27.09
56176;BME280;63065;51.082;17.016;2023-04-26T12:02:24;100198.60;;;12.67;27.33
56176;BME280;63065;51.082;17.016;2023-04-26T12:04:57;100211.87;;;10.73;29.30
56176;BME280;63065;51.082;17.016;2023-04-26T12:07:18;100211.17;;;12.08;29.37
56176;BME280;63065;51.082;17.016;2023-04-26T12:09:42;100211.82;;;11.19;29.97
56176;BME280;63065;51.082;17.016;2023-04-26T12:12:08;100211.51;;;10.99;29.80
56176;BME280;63065;51.082;17.016;2023-04-26T12:14:35;100207.03;;;11.72;29.30
56176;BME280;63065;51.082;17.016;2023-04-26T12:16:59;100199.70;;;12.74;28.29
56176;BME280;63065;51.082;17.016;2023-04-26T12:19:25;100194.83;;;13.34;29.20
56176;BME280;63065;51.082;17.016;2023-04-26T12:21:51;100203.43;;;13.10;26.46
56176;BME280;63065;51.082;17.016;2023-04-26T12:24:22;100203.70;;;11.47;27.90
56176;BME280;63065;51.082;17.016;2023-04-26T12:26:43;100201.22;;;12.95;26.12
56176;BME280;63065;51.082;17.016;2023-04-26T12:29:08;100205.64;;;13.11;27.07
56176;BME280;63065;51.082;17.016;2023-04-26T12:31:34;100204.40;;;12.12;29.34
56176;BME280;63065;51.082;17.016;2023-04-26T12:34:00;100209.74;;;10.79;31.62
56176;BME280;63065;51.082;17.016;2023-04-26T12:36:25;100216.15;;;11.19;31.82
56176;BME280;63065;51.082;17.016;2023-04-26T12:38:51;100214.88;;;11.59;29.79
56176;BME280;63065;51.082;17.016;2023-04-26T12:41:17;100216.09;;;10.38;30.67
56176;BME280;63065;51.082;17.016;2023-04-26T12:43:43;100213.90;;;11.67;30.66
56176;BME280;63065;51.082;17.016;2023-04-26T12:46:09;100219.34;;;10.42;30.56
56176;BME280;63065;51.082;17.016;2023-04-26T12:48:35;100217.42;;;11.84;28.54
56176;BME280;63065;51.082;17.016;2023-04-26T12:51:01;100215.60;;;10.93;27.86
56176;BME280;63065;51.082;17.016;2023-04-26T12:53:26;100218.56;;;11.49;28.66
56176;BME280;63065;51.082;17.016;2023-04-26T12:55:52;100216.14;;;10.93;31.01
56176;BME280;63065;51.082;17.016;2023-04-26T12:58:18;100219.06;;;10.69;30.40
56176;BME280;63065;51.082;17.016;2023-04-26T13:00:44;100220.19;;;10.80;31.90
56176;BME280;63065;51.082;17.016;2023-04-26T13:03:10;100221.95;;;11.33;32.43